createdAt,value
2018-11-04T07:23:51.011Z,1013.53
2018-11-04T07:24:51.032Z,1013.57
2018-11-04T07:25:51.105Z,1013.55
2018-11-04T07:26:50.848Z,1013.51
2018-11-04T07:27:50.863Z,1013.54
2018-11-04T07:28:51.195Z,1013.55
2018-11-04T07:29:50.834Z,1013.53
2018-11-04T07:30:50.774Z,1013.50
2018-11-04T07:31:50.750Z,1013.49
2018-11-04T07:32:50.716Z,1013.45
2018-11-04T07:33:50.702Z,1013.39
2018-11-04T07:34:50.725Z,1013.36
2018-11-04T07:35:50.750Z,1013.42
2018-11-04T07:36:50.709Z,1013.38
2018-11-04T07:37:50.681Z,1013.36
2018-11-04T07:38:50.666Z,1013.40
2018-11-04T07:39:50.693Z,1013.40
2018-11-04T07:40:50.666Z,1013.33
2018-11-04T07:41:50.628Z,1013.30
2018-11-04T07:44:07.617Z,1013.24
2018-11-04T08:11:43.471Z,1013.16
2018-11-04T08:12:43.456Z,1013.14
2018-11-04T08:16:09.501Z,1013.15
2018-11-04T08:17:09.338Z,1013.08
2018-11-04T08:18:09.675Z,1013.12
2018-11-04T08:19:09.224Z,1013.09
2018-11-04T08:20:09.225Z,1013.12
2018-11-04T08:21:09.149Z,1013.06
2018-11-04T08:22:09.126Z,1013.05
2018-11-04T08:23:09.171Z,1013.00
2018-11-04T08:42:41.878Z,1012.91
2018-11-04T08:43:42.034Z,1012.88
2018-11-04T08:44:41.775Z,1012.85
2018-11-04T08:45:41.853Z,1012.82
2018-11-04T08:46:41.759Z,1012.82
2018-11-04T08:47:41.756Z,1012.87
2018-11-04T08:48:41.645Z,1012.84
2018-11-04T08:49:42.199Z,1012.83
2018-11-04T08:50:43.260Z,1012.85
2018-11-04T08:51:41.600Z,1012.85
2018-11-04T08:52:41.746Z,1012.85
2018-11-04T08:53:41.629Z,1012.79
2018-11-04T08:54:41.622Z,1012.77
2018-11-04T08:55:41.667Z,1012.77
2018-11-04T08:56:41.546Z,1012.80
2018-11-04T08:57:41.578Z,1012.77
2018-11-04T08:58:41.574Z,1012.79
2018-11-04T08:59:41.608Z,1012.74
2018-11-04T09:00:42.270Z,1012.76
2018-11-04T09:01:42.263Z,1012.71
2018-11-04T09:02:42.282Z,1012.72
2018-11-04T09:03:41.434Z,1012.75
2018-11-04T09:04:41.420Z,1012.74
2018-11-04T09:05:41.421Z,1012.71
2018-11-04T09:06:41.473Z,1012.68
2018-11-04T09:07:41.497Z,1012.66
2018-11-04T09:08:41.398Z,1012.70
2018-11-04T09:09:41.391Z,1012.70
2018-11-04T09:10:41.449Z,1012.69
2018-11-04T09:11:41.390Z,1012.66
2018-11-04T09:13:58.514Z,1012.68
2018-11-04T09:14:58.434Z,1012.68
2018-11-04T09:15:58.433Z,1012.69
2018-11-04T09:16:58.388Z,1012.65
2018-11-04T09:17:58.526Z,1012.65
2018-11-04T09:18:58.285Z,1012.64
2018-11-04T09:19:58.243Z,1012.65
2018-11-04T09:20:58.317Z,1012.63
2018-11-04T09:21:58.450Z,1012.64
2018-11-04T09:22:58.892Z,1012.61
2018-11-04T09:23:58.260Z,1012.60
2018-11-04T09:24:58.235Z,1012.62
2018-11-04T09:25:58.191Z,1012.61
2018-11-04T09:26:58.165Z,1012.59
2018-11-04T09:28:02.782Z,1012.61
2018-11-04T09:28:58.197Z,1012.61
2018-11-04T09:29:58.145Z,1012.61
2018-11-04T09:30:58.193Z,1012.60
2018-11-04T09:31:58.165Z,1012.61
2018-11-04T09:32:58.117Z,1012.61
2018-11-04T09:42:04.186Z,1012.57
2018-11-04T09:43:04.051Z,1012.58
2018-11-04T09:46:56.218Z,1012.68
2018-11-04T09:47:55.583Z,1012.68
2018-11-04T09:48:55.644Z,1012.66
2018-11-04T09:49:55.643Z,1012.67
2018-11-04T09:50:55.492Z,1012.69
2018-11-04T09:51:55.465Z,1012.66
2018-11-04T09:52:55.434Z,1012.64
2018-11-04T09:55:25.334Z,1012.67
2018-11-04T09:56:32.705Z,1012.65
2018-11-04T09:57:25.599Z,1012.62
2018-11-04T10:14:08.766Z,1012.69
2018-11-04T10:16:24.328Z,1012.65
2018-11-04T10:17:26.948Z,1012.69
2018-11-04T10:18:37.348Z,1012.64
2018-11-04T10:21:25.167Z,1012.62
2018-11-04T10:24:39.591Z,1012.58
2018-11-04T10:25:36.800Z,1012.56
2018-11-04T10:26:36.792Z,1012.52
2018-11-04T10:27:36.714Z,1012.54
2018-11-04T10:28:36.706Z,1012.53
2018-11-04T10:29:36.644Z,1012.50
2018-11-04T10:30:36.644Z,1012.50
2018-11-04T10:31:36.621Z,1012.48
2018-11-04T10:32:36.579Z,1012.43
2018-11-04T10:50:57.150Z,1012.21
2018-11-04T10:51:55.466Z,1012.20
2018-11-04T10:52:55.831Z,1012.17
2018-11-04T10:54:05.136Z,1012.17
2018-11-04T10:54:55.300Z,1012.18
2018-11-04T10:55:55.360Z,1012.17
2018-11-04T11:02:52.219Z,1012.07
2018-11-04T11:03:50.946Z,1012.07
2018-11-04T11:04:55.826Z,1012.02
2018-11-04T11:05:50.951Z,1012.03
2018-11-04T11:10:47.867Z,1011.90
2018-11-04T11:11:46.848Z,1011.79
2018-11-04T11:12:46.583Z,1011.75
2018-11-04T11:13:46.429Z,1011.69
2018-11-04T11:14:46.427Z,1011.72
2018-11-04T11:15:46.421Z,1011.66
2018-11-04T11:16:46.390Z,1011.67
2018-11-04T11:17:46.399Z,1011.66
2018-11-04T11:18:46.402Z,1011.64
2018-11-04T11:19:46.360Z,1011.62
2018-11-04T11:20:46.349Z,1011.53
2018-11-04T11:21:46.353Z,1011.54
2018-11-04T11:22:46.533Z,1011.56
2018-11-04T11:23:46.348Z,1011.57
2018-11-04T11:24:46.322Z,1011.58
2018-11-04T11:25:46.316Z,1011.50
2018-11-04T11:26:46.285Z,1011.52
2018-11-04T11:27:46.308Z,1011.52
2018-11-04T11:28:46.278Z,1011.53
2018-11-04T11:29:46.278Z,1011.46
2018-11-04T11:30:46.290Z,1011.47
2018-11-04T11:31:46.232Z,1011.47
2018-11-04T11:32:46.222Z,1011.46
2018-11-04T11:33:46.229Z,1011.38
2018-11-04T11:34:46.221Z,1011.36
2018-11-04T11:35:46.186Z,1011.33
2018-11-04T11:36:46.177Z,1011.35
2018-11-04T11:37:46.230Z,1011.32
2018-11-04T11:38:46.176Z,1011.31
2018-11-04T11:39:46.166Z,1011.29
2018-11-04T11:40:46.143Z,1011.28
2018-11-04T11:41:46.123Z,1011.27
2018-11-04T11:42:46.184Z,1011.23
2018-11-04T11:43:46.176Z,1011.26
2018-11-04T11:44:46.105Z,1011.18
2018-11-04T11:45:46.112Z,1011.21
2018-11-04T11:46:46.242Z,1011.17
2018-11-04T11:47:46.111Z,1011.16
2018-11-04T11:48:46.168Z,1011.16
2018-11-04T11:49:46.059Z,1011.15
2018-11-04T11:50:46.034Z,1011.09
2018-11-04T11:55:04.794Z,1011.06
2018-11-04T12:06:43.726Z,1010.91
2018-11-04T12:13:43.716Z,1010.82
2018-11-04T12:14:43.713Z,1010.78
2018-11-04T12:15:45.258Z,1010.73
2018-11-04T12:22:06.757Z,1010.65
2018-11-04T12:23:06.841Z,1010.64
2018-11-04T12:31:02.837Z,1010.53
2018-11-04T13:03:54.866Z,1010.17
2018-11-04T13:04:53.404Z,1010.18
2018-11-04T13:05:53.297Z,1010.19
2018-11-04T13:06:53.249Z,1010.20
2018-11-04T13:07:53.180Z,1010.21
2018-11-04T13:08:53.158Z,1010.16
2018-11-04T13:09:53.160Z,1010.16
2018-11-04T13:10:53.185Z,1010.17
2018-11-04T13:11:56.308Z,1010.12
2018-11-04T13:13:01.079Z,1010.11
2018-11-04T13:14:06.726Z,1010.12
2018-11-04T13:16:23.950Z,1010.06
2018-11-04T13:17:18.280Z,1010.07
2018-11-04T13:18:18.255Z,1010.07
2018-11-04T13:19:18.192Z,1010.03
2018-11-04T13:20:18.193Z,1010.04
2018-11-04T13:21:18.214Z,1010.03
2018-11-04T13:22:18.226Z,1009.99
2018-11-04T13:23:18.225Z,1009.99
2018-11-04T13:24:18.183Z,1009.88
2018-11-04T13:25:18.924Z,1009.91
2018-11-04T13:26:18.113Z,1009.84
2018-11-04T13:27:18.116Z,1009.82
2018-11-04T13:28:18.082Z,1009.83
2018-11-04T13:29:18.080Z,1009.82
2018-11-04T13:30:18.107Z,1009.76
2018-11-04T13:31:18.072Z,1009.80
2018-11-04T13:32:18.053Z,1009.75
2018-11-04T13:33:18.059Z,1009.79
2018-11-04T13:34:18.010Z,1009.75
2018-11-04T13:35:18.010Z,1009.75
2018-11-04T13:36:18.010Z,1009.75
2018-11-04T13:37:17.993Z,1009.70
2018-11-04T13:38:17.986Z,1009.67
2018-11-04T13:39:18.093Z,1009.69
2018-11-04T13:40:17.997Z,1009.65
2018-11-04T13:41:17.940Z,1009.66
2018-11-04T13:42:17.952Z,1009.62
2018-11-04T13:43:18.050Z,1009.58
2018-11-04T13:44:17.904Z,1009.57
2018-11-04T13:45:17.923Z,1009.56
2018-11-04T13:46:17.948Z,1009.53
2018-11-04T13:47:21.776Z,1009.49
2018-11-04T13:49:39.491Z,1009.44
2018-11-04T13:50:38.551Z,1009.42
2018-11-04T13:51:38.450Z,1009.45
2018-11-04T13:52:38.405Z,1009.40
2018-11-04T13:53:38.382Z,1009.38
2018-11-04T13:54:38.362Z,1009.33
2018-11-04T13:55:38.331Z,1009.25
2018-11-04T13:56:38.366Z,1009.26
2018-11-04T13:57:38.329Z,1009.25
2018-11-04T13:58:38.320Z,1009.20
2018-11-04T13:59:38.305Z,1009.20
2018-11-04T14:00:38.317Z,1009.18
2018-11-04T14:01:38.288Z,1009.14
2018-11-04T14:02:38.360Z,1009.11
2018-11-04T14:03:38.287Z,1009.11
2018-11-04T14:04:38.241Z,1009.14
2018-11-04T14:05:38.256Z,1009.13
2018-11-04T14:06:38.245Z,1009.14
2018-11-04T14:07:38.292Z,1009.13
2018-11-04T14:08:38.211Z,1009.13
2018-11-04T14:09:38.203Z,1009.10
2018-11-04T14:10:38.170Z,1009.14
2018-11-04T14:11:38.166Z,1009.11
2018-11-04T14:12:38.280Z,1009.15
2018-11-04T14:13:38.196Z,1009.16
2018-11-04T14:14:38.150Z,1009.13
2018-11-04T14:15:38.121Z,1009.09
2018-11-04T14:16:40.865Z,1009.08
2018-11-04T14:17:38.100Z,1009.10
2018-11-04T14:18:38.126Z,1009.04
2018-11-04T14:19:38.096Z,1009.08
2018-11-04T14:20:38.072Z,1009.07
2018-11-04T14:21:38.113Z,1009.08
2018-11-04T14:22:38.067Z,1009.09
2018-11-04T14:23:38.061Z,1009.11
2018-11-04T14:24:38.057Z,1009.10
2018-11-04T14:25:38.030Z,1009.10
2018-11-04T14:26:38.047Z,1009.18
2018-11-04T14:27:38.028Z,1009.12
2018-11-04T14:28:38.025Z,1009.13
2018-11-04T14:29:38.024Z,1009.18
2018-11-04T14:30:37.974Z,1009.15
2018-11-04T14:31:37.985Z,1009.17
2018-11-04T14:32:37.925Z,1009.20
2018-11-04T14:33:37.944Z,1009.15
2018-11-04T14:34:37.926Z,1009.16
2018-11-04T14:35:37.933Z,1009.19
2018-11-04T14:36:37.954Z,1009.19
2018-11-04T14:37:37.875Z,1009.17
2018-11-04T14:38:37.888Z,1009.18
2018-11-04T14:39:37.936Z,1009.17
2018-11-04T14:40:37.848Z,1009.20
2018-11-04T14:41:37.882Z,1009.15
2018-11-04T14:42:37.832Z,1009.20
2018-11-04T14:43:37.878Z,1009.14
2018-11-04T14:44:37.918Z,1009.18
2018-11-04T14:45:37.836Z,1009.17
2018-11-04T14:46:37.799Z,1009.20
2018-11-04T14:47:37.816Z,1009.16
2018-11-04T14:48:37.835Z,1009.20
2018-11-04T14:49:37.755Z,1009.15
2018-11-04T14:50:38.143Z,1009.18
2018-11-04T14:51:37.750Z,1009.19
2018-11-04T14:52:37.719Z,1009.20
2018-11-04T14:53:37.746Z,1009.22
2018-11-04T14:54:37.705Z,1009.20
2018-11-04T14:55:37.728Z,1009.23
2018-11-04T14:56:37.666Z,1009.24
2018-11-04T14:57:37.658Z,1009.25
2018-11-04T14:58:37.728Z,1009.27
2018-11-04T14:59:37.642Z,1009.31
2018-11-04T15:00:37.686Z,1009.28
2018-11-04T15:01:37.722Z,1009.31
2018-11-04T15:02:37.604Z,1009.23
2018-11-04T15:03:37.610Z,1009.22
2018-11-04T15:04:37.784Z,1009.19
2018-11-04T15:05:39.444Z,1009.21
2018-11-04T15:06:37.609Z,1009.15
2018-11-04T15:07:37.770Z,1009.20
2018-11-04T15:08:37.596Z,1009.21
2018-11-04T15:09:37.545Z,1009.15
2018-11-04T15:10:38.380Z,1009.17
2018-11-04T15:11:37.582Z,1009.14
2018-11-04T15:12:37.615Z,1009.10
2018-11-04T15:13:37.525Z,1009.03
2018-11-04T15:14:37.477Z,1009.06
2018-11-04T15:15:37.472Z,1009.06
2018-11-04T15:16:37.531Z,1009.05
2018-11-04T15:17:37.466Z,1008.99
2018-11-04T15:18:37.485Z,1008.96
2018-11-04T15:19:37.436Z,1009.02
2018-11-04T15:20:37.429Z,1009.00
2018-11-04T15:21:37.443Z,1008.95
2018-11-04T15:22:37.455Z,1008.92
2018-11-04T15:23:37.390Z,1008.91
2018-11-04T15:24:37.388Z,1008.94
2018-11-04T15:25:37.369Z,1008.89
2018-11-04T15:26:37.437Z,1008.91
2018-11-04T15:27:37.341Z,1008.91
2018-11-04T15:28:37.344Z,1008.82
2018-11-04T15:29:37.831Z,1008.83
2018-11-04T15:30:37.359Z,1008.80
2018-11-04T15:31:37.289Z,1008.78
2018-11-04T15:32:37.331Z,1008.74
2018-11-04T15:33:37.443Z,1008.77
2018-11-04T15:34:37.475Z,1008.77
2018-11-04T15:35:37.253Z,1008.77
2018-11-04T15:36:37.274Z,1008.75
2018-11-04T15:37:37.306Z,1008.74
2018-11-04T15:38:37.424Z,1008.76
2018-11-04T15:39:37.248Z,1008.70
2018-11-04T15:40:38.214Z,1008.72
2018-11-04T15:41:45.479Z,1008.72
2018-11-04T15:42:37.348Z,1008.70
2018-11-04T15:43:37.403Z,1008.75
2018-11-04T15:44:37.285Z,1008.72
2018-11-04T15:45:37.297Z,1008.79
2018-11-04T15:46:37.174Z,1008.77
2018-11-04T15:47:37.147Z,1008.76
2018-11-04T15:48:37.139Z,1008.76
2018-11-04T15:49:37.118Z,1008.77
2018-11-04T15:50:37.090Z,1008.78
2018-11-04T15:51:37.075Z,1008.78
2018-11-04T15:52:37.102Z,1008.77
2018-11-04T15:53:37.082Z,1008.83
2018-11-04T15:54:37.072Z,1008.81
2018-11-04T15:55:37.057Z,1008.83
2018-11-04T15:56:37.025Z,1008.82
2018-11-04T15:57:37.982Z,1008.83
2018-11-04T15:58:37.034Z,1008.83
2018-11-04T15:59:37.000Z,1008.83
2018-11-04T16:00:37.026Z,1008.83
2018-11-04T16:01:36.967Z,1008.88
2018-11-04T16:02:36.963Z,1008.82
2018-11-04T16:03:36.968Z,1008.78
2018-11-04T16:04:44.550Z,1008.76
2018-11-04T16:05:37.001Z,1008.79
2018-11-04T16:06:36.977Z,1008.82
2018-11-04T16:07:36.915Z,1008.80
2018-11-04T16:08:36.902Z,1008.74
2018-11-04T16:09:36.877Z,1008.81
2018-11-04T16:10:36.867Z,1008.83
2018-11-04T16:11:36.861Z,1008.87
2018-11-04T16:12:36.999Z,1008.81
2018-11-04T16:13:36.890Z,1008.79
2018-11-04T16:14:36.836Z,1008.71
2018-11-04T16:15:36.822Z,1008.72
2018-11-04T16:16:36.910Z,1008.74
2018-11-04T16:17:36.821Z,1008.80
2018-11-04T16:18:36.893Z,1008.86
2018-11-04T16:19:36.787Z,1008.86
2018-11-04T16:20:36.767Z,1008.87
2018-11-04T16:21:36.752Z,1008.85
2018-11-04T16:22:36.769Z,1008.88
2018-11-04T16:23:36.761Z,1008.91
2018-11-04T16:24:36.751Z,1008.91
2018-11-04T16:25:36.835Z,1008.94
2018-11-04T16:26:36.693Z,1008.95
2018-11-04T16:27:36.682Z,1008.95
2018-11-04T16:28:36.743Z,1008.93
2018-11-04T16:29:36.685Z,1008.92
2018-11-04T16:30:36.651Z,1008.88
2018-11-04T16:31:36.641Z,1008.91
2018-11-04T16:32:36.632Z,1008.85
2018-11-04T16:33:36.664Z,1008.79
2018-11-04T16:34:36.624Z,1008.81
2018-11-04T16:35:36.615Z,1008.81
2018-11-04T16:36:36.585Z,1008.83
2018-11-04T16:37:36.616Z,1008.83
2018-11-04T16:38:36.570Z,1008.84
2018-11-04T16:39:36.599Z,1008.81
2018-11-04T16:40:36.567Z,1008.82
2018-11-04T16:41:36.548Z,1008.89
2018-11-04T16:42:36.559Z,1008.88
2018-11-04T16:43:36.675Z,1008.93
2018-11-04T16:44:36.622Z,1008.91
2018-11-04T16:45:36.495Z,1008.88
2018-11-04T16:46:36.494Z,1008.86
2018-11-04T16:47:36.487Z,1008.83
2018-11-04T16:48:36.516Z,1008.84
2018-11-04T16:49:36.501Z,1008.83
2018-11-04T16:50:36.432Z,1008.88
2018-11-04T16:51:36.428Z,1008.86
2018-11-04T16:52:36.432Z,1008.82
2018-11-04T16:53:36.408Z,1008.89
2018-11-04T16:54:36.445Z,1008.88
2018-11-04T16:55:36.473Z,1008.87
2018-11-04T16:56:36.372Z,1008.86
2018-11-04T16:57:36.354Z,1008.87
2018-11-04T16:58:36.360Z,1008.87
2018-11-04T16:59:36.355Z,1008.81
2018-11-04T17:00:36.328Z,1008.80
2018-11-04T17:01:36.351Z,1008.77
2018-11-04T17:02:36.305Z,1008.74
2018-11-04T17:03:36.308Z,1008.73
2018-11-04T17:04:36.322Z,1008.74
2018-11-04T17:05:36.475Z,1008.75
2018-11-04T17:06:36.511Z,1008.81
2018-11-04T17:07:36.308Z,1008.77
2018-11-04T17:08:36.262Z,1008.79
2018-11-04T17:09:36.242Z,1008.73
2018-11-04T17:10:36.302Z,1008.72
2018-11-04T17:11:36.307Z,1008.67
2018-11-04T17:12:36.209Z,1008.67
2018-11-04T17:13:36.183Z,1008.67
2018-11-04T17:14:36.186Z,1008.66
2018-11-04T17:15:36.182Z,1008.65
2018-11-04T17:16:36.184Z,1008.67
2018-11-04T17:17:36.131Z,1008.71
2018-11-04T17:18:36.158Z,1008.69
2018-11-04T17:19:36.116Z,1008.74
2018-11-04T17:20:36.171Z,1008.71
2018-11-04T17:21:36.109Z,1008.72
2018-11-04T17:22:36.093Z,1008.72
2018-11-04T17:23:36.091Z,1008.69
2018-11-04T17:24:36.098Z,1008.66
2018-11-04T17:25:36.094Z,1008.66
2018-11-04T17:26:36.073Z,1008.60
2018-11-04T17:27:36.044Z,1008.61
2018-11-04T17:28:36.038Z,1008.60
2018-11-04T17:31:04.598Z,1008.66
2018-11-04T17:32:03.792Z,1008.61
2018-11-04T17:33:03.800Z,1008.60
2018-11-04T17:34:03.639Z,1008.60
2018-11-04T17:35:03.613Z,1008.54
2018-11-04T17:36:03.699Z,1008.56
2018-11-04T17:37:03.606Z,1008.57
2018-11-04T17:38:03.584Z,1008.58
2018-11-04T17:39:03.567Z,1008.57
2018-11-04T17:40:03.577Z,1008.58
2018-11-04T17:41:03.565Z,1008.54
2018-11-04T17:42:03.599Z,1008.55
2018-11-04T17:43:03.504Z,1008.49
2018-11-04T17:44:03.580Z,1008.52
2018-11-04T17:45:03.495Z,1008.51
2018-11-04T17:46:03.486Z,1008.53
2018-11-04T17:47:03.530Z,1008.57
2018-11-04T17:48:03.467Z,1008.51
2018-11-04T17:49:03.453Z,1008.49
2018-11-04T17:50:03.487Z,1008.46
2018-11-04T17:51:03.430Z,1008.44
2018-11-04T17:52:03.433Z,1008.44
2018-11-04T17:53:03.411Z,1008.47
2018-11-04T17:54:03.416Z,1008.43
2018-11-04T17:55:03.394Z,1008.43
2018-11-04T17:56:03.425Z,1008.43
2018-11-04T17:57:03.404Z,1008.42
2018-11-04T17:58:03.383Z,1008.38
2018-11-04T17:59:03.380Z,1008.39
2018-11-04T18:00:03.440Z,1008.39
2018-11-04T18:01:03.362Z,1008.35
2018-11-04T18:02:03.389Z,1008.36
2018-11-04T18:03:03.356Z,1008.36
2018-11-04T18:04:03.330Z,1008.35
2018-11-04T18:05:03.356Z,1008.41
2018-11-04T18:06:03.319Z,1008.39
2018-11-04T18:07:03.338Z,1008.41
2018-11-04T18:08:03.304Z,1008.35
2018-11-04T18:09:03.285Z,1008.36
2018-11-04T18:10:03.249Z,1008.35
2018-11-04T18:11:03.264Z,1008.39
2018-11-04T18:12:03.291Z,1008.39
2018-11-04T18:13:03.257Z,1008.43
2018-11-04T18:14:03.200Z,1008.40
2018-11-04T18:15:03.180Z,1008.40
2018-11-04T18:16:03.189Z,1008.36
2018-11-04T18:17:03.219Z,1008.34
2018-11-04T18:18:03.169Z,1008.33
2018-11-04T18:19:03.979Z,1008.30
2018-11-04T18:20:03.128Z,1008.28
2018-11-04T18:21:03.115Z,1008.28
2018-11-04T18:22:03.131Z,1008.23
2018-11-04T18:23:03.118Z,1008.26
2018-11-04T18:24:03.131Z,1008.29
2018-11-04T18:25:03.146Z,1008.36
2018-11-04T18:26:03.147Z,1008.33
2018-11-04T18:27:03.106Z,1008.43
2018-11-04T18:28:03.089Z,1008.40
2018-11-04T18:29:03.064Z,1008.42
2018-11-04T18:30:03.042Z,1008.43
2018-11-04T18:31:03.067Z,1008.42
2018-11-04T18:32:03.060Z,1008.36
2018-11-04T18:33:03.079Z,1008.35
2018-11-04T18:34:03.111Z,1008.35
2018-11-04T18:35:03.002Z,1008.36
2018-11-04T18:36:03.012Z,1008.27
2018-11-04T18:37:02.998Z,1008.26
2018-11-04T18:38:03.093Z,1008.24
2018-11-04T18:39:02.941Z,1008.23
2018-11-04T18:40:02.942Z,1008.22
2018-11-04T18:41:02.910Z,1008.23
2018-11-04T18:42:02.918Z,1008.18
2018-11-04T18:43:02.929Z,1008.20
2018-11-04T18:44:02.967Z,1008.12
2018-11-04T18:45:02.893Z,1008.12
2018-11-04T18:46:02.895Z,1008.12
2018-11-04T18:47:02.862Z,1008.20
2018-11-04T18:48:02.847Z,1008.18
2018-11-04T18:49:02.881Z,1008.20
2018-11-04T18:50:02.828Z,1008.17
2018-11-04T18:51:02.819Z,1008.25
2018-11-04T18:52:02.830Z,1008.25
2018-11-04T18:53:02.859Z,1008.21
2018-11-04T18:54:02.822Z,1008.19
2018-11-04T18:55:02.782Z,1008.15
2018-11-04T18:56:02.751Z,1008.22
2018-11-04T18:57:02.764Z,1008.24
2018-11-04T18:58:02.748Z,1008.25
2018-11-04T18:59:02.769Z,1008.24
2018-11-04T19:00:02.713Z,1008.21
2018-11-04T19:01:02.716Z,1008.20
2018-11-04T19:02:02.726Z,1008.29
2018-11-04T19:03:02.745Z,1008.20
2018-11-04T19:04:02.676Z,1008.23
2018-11-04T19:05:02.650Z,1008.19
2018-11-04T19:06:02.637Z,1008.20
2018-11-04T19:07:02.626Z,1008.16
2018-11-04T19:08:02.660Z,1008.13
2018-11-04T19:09:02.620Z,1008.09
2018-11-04T19:10:02.588Z,1008.07
2018-11-04T19:11:02.693Z,1008.06
2018-11-04T19:12:02.645Z,1008.07
2018-11-04T19:13:02.617Z,1008.05
2018-11-04T19:14:02.632Z,1008.09
2018-11-04T19:15:02.567Z,1008.09
2018-11-04T19:16:02.577Z,1008.09
2018-11-04T19:17:02.625Z,1008.06
2018-11-04T19:18:02.532Z,1008.04
2018-11-04T19:19:02.693Z,1008.05
2018-11-04T19:20:02.576Z,1008.04
2018-11-04T19:21:02.524Z,1008.00
2018-11-04T19:22:02.494Z,1008.02
2018-11-04T19:23:02.503Z,1008.04
2018-11-04T19:24:02.501Z,1008.02
2018-11-04T19:25:02.519Z,1008.01
2018-11-04T19:26:02.499Z,1008.07
2018-11-04T19:27:02.439Z,1008.03
2018-11-04T19:28:02.442Z,1008.03
2018-11-04T19:29:02.432Z,1007.98
2018-11-04T19:30:02.408Z,1008.02
2018-11-04T19:31:02.464Z,1007.97
2018-11-04T19:32:02.391Z,1007.96
2018-11-04T19:33:02.376Z,1008.00
2018-11-04T19:34:02.411Z,1008.03
2018-11-04T19:35:02.594Z,1008.04
2018-11-04T19:36:02.422Z,1008.04
2018-11-04T19:37:02.352Z,1008.02
2018-11-04T19:38:02.391Z,1008.00
2018-11-04T19:39:02.291Z,1008.04
2018-11-04T19:40:02.361Z,1008.01
2018-11-04T19:41:02.304Z,1008.01
2018-11-04T19:42:02.290Z,1007.96
2018-11-04T19:43:02.355Z,1007.95
2018-11-04T19:44:02.303Z,1007.98
2018-11-04T19:45:02.391Z,1007.96
2018-11-04T19:46:02.274Z,1007.93
2018-11-04T19:47:02.304Z,1007.89
2018-11-04T19:48:02.229Z,1007.91
2018-11-04T19:49:02.194Z,1007.92
2018-11-04T19:50:02.212Z,1007.95
2018-11-04T19:51:02.291Z,1007.92
2018-11-04T19:52:02.218Z,1007.96
2018-11-04T19:53:02.176Z,1007.97
2018-11-04T19:54:02.226Z,1007.95
2018-11-04T19:55:02.135Z,1007.98
2018-11-04T19:56:02.173Z,1007.93
2018-11-04T19:57:02.102Z,1007.94
2018-11-04T19:58:02.127Z,1007.93
2018-11-04T19:59:02.210Z,1007.92
2018-11-04T20:00:02.105Z,1007.96
2018-11-04T20:01:02.111Z,1007.98
2018-11-04T20:02:02.143Z,1008.00
2018-11-04T20:03:02.045Z,1008.00
2018-11-04T20:04:02.083Z,1008.05
2018-11-04T20:05:02.067Z,1007.92
2018-11-04T20:06:02.194Z,1007.95
2018-11-04T20:07:02.088Z,1007.90
2018-11-04T20:08:02.018Z,1007.88
2018-11-04T20:09:01.949Z,1007.95
2018-11-04T20:10:01.966Z,1007.89
2018-11-04T20:11:01.941Z,1007.85
2018-11-04T20:12:01.933Z,1007.86
2018-11-04T20:13:01.944Z,1007.83
2018-11-04T20:14:01.886Z,1007.87
2018-11-04T20:15:01.909Z,1007.88
2018-11-04T20:16:01.910Z,1007.91
2018-11-04T20:17:01.868Z,1007.89
2018-11-04T20:18:01.881Z,1007.85
2018-11-04T20:19:01.895Z,1007.81
2018-11-04T20:20:01.993Z,1007.80
2018-11-04T20:21:01.832Z,1007.82
2018-11-04T20:22:01.796Z,1007.82
2018-11-04T20:23:01.793Z,1007.76
2018-11-04T20:24:01.828Z,1007.78
2018-11-04T20:25:01.815Z,1007.76
2018-11-04T20:26:01.786Z,1007.76
2018-11-04T20:27:01.777Z,1007.71
2018-11-04T20:28:01.758Z,1007.70
2018-11-04T20:29:01.744Z,1007.73
2018-11-04T20:30:01.709Z,1007.68
2018-11-04T20:31:01.744Z,1007.67
2018-11-04T20:32:01.714Z,1007.69
2018-11-04T20:33:01.716Z,1007.64
2018-11-04T20:34:01.816Z,1007.69
2018-11-04T20:35:01.677Z,1007.64
2018-11-04T20:36:01.847Z,1007.63
2018-11-04T20:37:01.640Z,1007.65
2018-11-04T20:38:01.643Z,1007.68
2018-11-04T20:39:01.659Z,1007.61
2018-11-04T20:40:01.632Z,1007.68
2018-11-04T20:41:01.644Z,1007.67
2018-11-04T20:42:01.585Z,1007.71
2018-11-04T20:43:01.604Z,1007.69
2018-11-04T20:44:01.614Z,1007.75
2018-11-04T20:45:01.728Z,1007.76
2018-11-04T20:46:01.553Z,1007.84
2018-11-04T20:47:01.577Z,1007.79
2018-11-04T20:48:01.557Z,1007.84
2018-11-04T20:49:01.518Z,1007.81
2018-11-04T20:50:01.499Z,1007.85
2018-11-04T20:51:01.521Z,1007.84
2018-11-04T20:52:01.621Z,1007.85
2018-11-04T20:53:01.479Z,1007.86
2018-11-04T20:54:01.480Z,1007.86
2018-11-04T20:55:01.452Z,1007.84
2018-11-04T20:56:01.474Z,1007.72
2018-11-04T20:57:01.455Z,1007.78
2018-11-04T20:58:01.562Z,1007.77
2018-11-04T20:59:01.438Z,1007.70
2018-11-04T21:00:01.429Z,1007.70
2018-11-04T21:01:01.383Z,1007.65
2018-11-04T21:02:01.443Z,1007.59
2018-11-04T21:03:01.415Z,1007.62
2018-11-04T21:04:01.474Z,1007.58
2018-11-04T21:05:01.355Z,1007.61
2018-11-04T21:06:01.365Z,1007.59
2018-11-04T21:07:01.378Z,1007.53
2018-11-04T21:08:01.342Z,1007.54
2018-11-04T21:09:01.319Z,1007.56
2018-11-04T21:10:01.384Z,1007.58
2018-11-04T21:11:01.311Z,1007.63
2018-11-04T21:12:01.294Z,1007.58
2018-11-04T21:13:01.300Z,1007.56
2018-11-04T21:14:01.249Z,1007.58
2018-11-04T21:15:01.252Z,1007.54
2018-11-04T21:16:01.269Z,1007.53
2018-11-04T21:17:01.265Z,1007.52
2018-11-04T21:18:01.192Z,1007.51
2018-11-04T21:19:01.193Z,1007.52
2018-11-04T21:20:01.183Z,1007.57
2018-11-04T21:21:01.229Z,1007.59
2018-11-04T21:22:01.210Z,1007.59
2018-11-04T21:23:01.151Z,1007.55
2018-11-04T21:24:01.150Z,1007.51
2018-11-04T21:25:01.129Z,1007.49
2018-11-04T21:26:01.261Z,1007.55
2018-11-04T21:27:01.137Z,1007.53
2018-11-04T21:28:01.142Z,1007.54
2018-11-04T21:29:01.245Z,1007.53
2018-11-04T21:30:01.069Z,1007.49
2018-11-04T21:31:01.136Z,1007.48
2018-11-04T21:32:01.062Z,1007.46
2018-11-04T21:33:01.049Z,1007.42
2018-11-04T21:34:01.055Z,1007.42
2018-11-04T21:35:01.015Z,1007.45
2018-11-04T21:36:01.009Z,1007.41
2018-11-04T21:37:01.033Z,1007.39
2018-11-04T21:38:01.092Z,1007.39
2018-11-04T21:39:00.968Z,1007.32
2018-11-04T21:40:00.981Z,1007.30
2018-11-04T21:41:00.954Z,1007.32
2018-11-04T21:42:00.936Z,1007.26
2018-11-04T21:43:00.989Z,1007.25
2018-11-04T21:44:01.139Z,1007.26
2018-11-04T21:45:00.913Z,1007.26
2018-11-04T21:46:00.901Z,1007.24
2018-11-04T21:47:00.885Z,1007.20
2018-11-04T21:48:00.900Z,1007.21
2018-11-04T21:49:00.907Z,1007.24
2018-11-04T21:50:00.849Z,1007.21
2018-11-04T21:51:00.935Z,1007.24
2018-11-04T21:52:00.864Z,1007.17
2018-11-04T21:53:00.896Z,1007.24
2018-11-04T21:54:00.802Z,1007.27
2018-11-04T21:55:00.874Z,1007.26
2018-11-04T21:56:00.908Z,1007.19
2018-11-04T21:57:00.796Z,1007.18
2018-11-04T21:58:00.823Z,1007.20
2018-11-04T21:59:00.799Z,1007.19
2018-11-04T22:00:00.755Z,1007.15
2018-11-04T22:01:00.795Z,1007.11
2018-11-04T22:02:00.720Z,1007.07
2018-11-04T22:03:00.812Z,1006.99
2018-11-04T22:04:01.028Z,1006.97
2018-11-04T22:05:00.702Z,1006.97
2018-11-04T22:06:00.757Z,1006.91
2018-11-04T22:07:00.696Z,1006.93
2018-11-04T22:08:00.809Z,1006.88
2018-11-04T22:09:00.655Z,1006.84
2018-11-04T22:10:00.637Z,1006.84
2018-11-04T22:11:00.629Z,1006.82
2018-11-04T22:12:00.619Z,1006.83
2018-11-04T22:13:00.705Z,1006.81
2018-11-04T22:14:00.747Z,1006.88
2018-11-04T22:15:00.585Z,1006.85
2018-11-04T22:16:00.569Z,1006.90
2018-11-04T22:17:00.638Z,1006.95
2018-11-04T22:18:00.590Z,1006.91
2018-11-04T22:19:00.545Z,1006.91
2018-11-04T22:20:00.625Z,1006.93
2018-11-04T22:21:00.542Z,1006.89
2018-11-04T22:22:00.501Z,1006.86
2018-11-04T22:23:00.538Z,1006.85
2018-11-04T22:24:00.522Z,1006.89
2018-11-04T22:25:00.486Z,1006.89
2018-11-04T22:26:00.467Z,1006.93
2018-11-04T22:27:00.452Z,1006.91
2018-11-04T22:28:00.496Z,1006.89